Morocco Star — CNA5167 — position and weather

sailwx.info

Track history (hours):
 
Tides and Currents Weather Stations Pressure Air Temp Water Temp Dewpoint Dewpoint Depression Visibility Wind Speed Wind Dir Waves Ship Positions

Morocco Star

Last reported at 2018-Jun-18 23:43 UTC. Time now 2018-Jun-21 04:37 UTC.
Position N 35°56' W 005°30'.

Length 152 m; draft 5.1 m.

Type: Ship. MMSI: 242579300.

Date/timePositionNaut miles runAvg speedWind from/ knotsBaromVisibWave heightAir tempDewpointWater temp
2018-Jun-18 23:43N 35°56' W 005°30'312.7
2018-Jun-18 23:30N 35°59' W 005°28'611.5
2018-Jun-18 23:00N 36°03' W 005°24'5 8.2
2018-Jun-18 22:24N 36°08' W 005°26'0 0.1
2018-Jun-18 21:27N 36°08' W 005°26'4 6.8
2018-Jun-18 20:54N 36°05' W 005°23'616.2
2018-Jun-18 20:31N 35°59' W 005°25'5 2.2
2018-Jun-18 18:21N 35°56' W 005°30'613.6
2018-Jun-18 17:55N 36°01' W 005°25'2 0.6
2018-Jun-18 15:03N 36°03' W 005°24'115.3
2018-Jun-18 14:58N 36°01' W 005°24'7 1.7
2018-Jun-18 11:02N 35°57' W 005°30'113.2
2018-Jun-18 10:59N 35°58' W 005°30'713.9
2018-Jun-18 10:29N 36°03' W 005°24'2 0.7
2018-Jun-18 08:00N 36°05' W 005°24'815.8
2018-Jun-18 07:30N 35°57' W 005°27'5 0.6
2018-Jun-17 23:19N 35°54' W 005°31'413.6
2018-Jun-17 23:00N 35°57' W 005°29'612.0
2018-Jun-17 22:30N 36°02' W 005°25'6 4.3
2018-Jun-17 21:07N 36°08' W 005°26'0 0.0
2018-Jun-17 20:49N 36°08' W 005°26'0 1.1
2018-Jun-17 20:30N 36°08' W 005°26'4 8.6
2018-Jun-17 20:00N 36°05' W 005°24'815.8
2018-Jun-17 19:30N 35°57' W 005°28'2 1.0
2018-Jun-17 17:02N 35°56' W 005°30'114.4
2018-Jun-17 16:58N 35°57' W 005°30'611.9
2018-Jun-17 16:30N 36°01' W 005°25'7 4.6
2018-Jun-17 15:05N 36°08' W 005°26'0 0.0
2018-Jun-17 14:59N 36°08' W 005°26'0 1.0
2018-Jun-17 14:30N 36°08' W 005°26'5 9.3
2018-Jun-17 14:01N 36°04' W 005°24'714.6
2018-Jun-17 13:31N 35°58' W 005°28'2 0.8
2018-Jun-17 11:02N 35°57' W 005°30'014.1
2018-Jun-17 11:00N 35°57' W 005°30'713.3
2018-Jun-17 10:30N 36°02' W 005°25'6 3.6
2018-Jun-17 08:50N 36°08' W 005°26'0 0.2
2018-Jun-17 08:27N 36°08' W 005°26'2 5.3
2018-Jun-17 08:00N 36°07' W 005°24'714.7
2018-Jun-17 07:31N 35°60' W 005°23'915.9
2018-Jun-17 06:58N 35°54' W 005°31'0 0.0
2018-Jun-17 01:28N 35°54' W 005°31'614.4
2018-Jun-17 01:00N 35°59' W 005°27'713.1
2018-Jun-17 00:30N 36°05' W 005°24'3 6.4
2018-Jun-17 00:01N 36°08' W 005°26'0 0.0
2018-Jun-16 23:30N 36°08' W 005°26'0 0.3
2018-Jun-16 23:00N 36°08' W 005°26'4 8.7
2018-Jun-16 22:30N 36°05' W 005°22'816.7
2018-Jun-16 22:00N 35°57' W 005°27'3 0.8
2018-Jun-16 18:44N 35°56' W 005°30'312.7
2018-Jun-16 18:30N 35°59' W 005°28'612.6
2018-Jun-16 18:00N 36°04' W 005°23'5 3.1
2018-Jun-16 16:28N 36°08' W 005°26'2 3.5
2018-Jun-16 16:00N 36°08' W 005°24'714.6
2018-Jun-16 15:30N 36°01' W 005°24'815.3
2018-Jun-16 14:58N 35°55' W 005°30'2 0.8
2018-Jun-16 12:13N 35°57' W 005°30'314.5
2018-Jun-16 12:00N 35°59' W 005°28'7 1.9
2018-Jun-16 08:33N 36°05' W 005°23'115.6
2018-Jun-16 08:30N 36°04' W 005°23'815.7
2018-Jun-16 08:00N 35°57' W 005°28'5 0.7
2018-Jun-16 00:49N 35°53' W 005°31'3 9.2
2018-Jun-16 00:28N 35°56' W 005°30'614.0
2018-Jun-16 00:00N 36°01' W 005°25'714.7
2018-Jun-15 23:30N 36°08' W 005°24'2 3.7
2018-Jun-15 22:59N 36°08' W 005°26'0 0.0
2018-Jun-15 22:17N 36°08' W 005°26'0 0.0
2018-Jun-15 22:00N 36°08' W 005°26'1 2.9
2018-Jun-15 21:30N 36°09' W 005°25'1 2.3
2018-Jun-15 20:59N 36°08' W 005°24'1 2.1
2018-Jun-15 20:30N 36°07' W 005°23'4 8.1
2018-Jun-15 20:00N 36°03' W 005°23'817.3
2018-Jun-15 19:30N 35°56' W 005°29'3 1.9
2018-Jun-15 17:41N 35°53' W 005°31'4 8.5
2018-Jun-15 17:10N 35°57' W 005°29'213.2
2018-Jun-15 17:00N 35°59' W 005°28'9 4.8
2018-Jun-15 15:07N 36°08' W 005°26'3 6.8
2018-Jun-15 14:41N 36°06' W 005°24'616.3
2018-Jun-15 14:19N 35°60' W 005°25'515.6
2018-Jun-15 14:00N 35°56' W 005°29'2 0.5
2018-Jun-15 11:03N 35°57' W 005°31'115.0
2018-Jun-15 11:00N 35°57' W 005°30'714.3
2018-Jun-15 10:30N 36°03' W 005°25'2 0.6
2018-Jun-15 07:33N 36°04' W 005°23'116.6
2018-Jun-15 07:30N 36°03' W 005°23'9 1.1
2018-Jun-14 22:52N 35°56' W 005°31'513.2
2018-Jun-14 22:30N 35°60' W 005°27'8 6.0
2018-Jun-14 21:11N 36°08' W 005°26'0 0.0
2018-Jun-14 20:59N 36°08' W 005°26'0 0.6
2018-Jun-14 20:30N 36°08' W 005°26'5 9.4
2018-Jun-14 20:00N 36°04' W 005°23'917.4
2018-Jun-14 19:30N 35°57' W 005°29'1 0.5
2018-Jun-14 17:15N 35°57' W 005°30'311.8
2018-Jun-14 17:00N 35°59' W 005°28'611.5
2018-Jun-14 16:30N 36°04' W 005°24'5 8.0
2018-Jun-14 15:56N 36°08' W 005°26'0 0.3
2018-Jun-14 15:24N 36°08' W 005°26'0 0.0
2018-Jun-14 15:00N 36°08' W 005°26'1 2.9
2018-Jun-14 14:30N 36°09' W 005°25'1015.5
2018-Jun-14 13:52N 35°59' W 005°26'4 1.7
2018-Jun-14 11:13N 35°56' W 005°30'314.0
2018-Jun-14 11:00N 35°59' W 005°28'713.1
2018-Jun-14 10:29N 36°05' W 005°24'4 2.2
2018-Jun-14 08:28N 36°09' W 005°25'715.3
2018-Jun-14 08:00N 36°02' W 005°24'8 0.9
2018-Jun-13 23:13N 35°57' W 005°31'313.1
2018-Jun-13 23:00N 35°59' W 005°28'612.4
2018-Jun-13 22:31N 36°04' W 005°24'510.4
2018-Jun-13 22:00N 36°09' W 005°26'1 1.6
2018-Jun-13 21:28N 36°08' W 005°26'0 0.1
2018-Jun-13 20:56N 36°08' W 005°26'3 5.5
2018-Jun-13 20:28N 36°07' W 005°23'918.7
2018-Jun-13 20:00N 35°58' W 005°26'2 1.2
2018-Jun-13 18:03N 35°58' W 005°29'113.6
2018-Jun-13 18:00N 35°58' W 005°29'612.7
2018-Jun-13 17:30N 36°04' W 005°24'6 3.1
2018-Jun-13 15:44N 36°09' W 005°26'613.2
2018-Jun-13 15:16N 36°03' W 005°23'518.8
2018-Jun-13 15:01N 35°59' W 005°26'3 0.9
2018-Jun-13 11:12N 35°57' W 005°30'315.0
2018-Jun-13 11:00N 35°60' W 005°27'713.7
2018-Jun-13 10:30N 36°06' W 005°23'3 1.5
2018-Jun-13 08:21N 36°09' W 005°25'616.6
2018-Jun-13 07:58N 36°03' W 005°24'12 1.4
2018-Jun-12 23:55N 35°53' W 005°31'4 9.6
2018-Jun-12 23:30N 35°57' W 005°30'714.7
2018-Jun-12 23:00N 36°03' W 005°25'6 3.1
2018-Jun-12 21:14N 36°08' W 005°26'1 6.0
2018-Jun-12 21:00N 36°09' W 005°25'816.6
2018-Jun-12 20:31N 36°00' W 005°25'5 1.8
2018-Jun-12 17:53N 35°57' W 005°29'512.7
2018-Jun-12 17:29N 36°01' W 005°25'7 3.2
2018-Jun-12 15:23N 36°08' W 005°26'4 6.1
2018-Jun-12 14:41N 36°04' W 005°23'618.4
2018-Jun-12 14:22N 35°59' W 005°26'4 1.0
2018-Jun-12 10:56N 35°57' W 005°30'614.8
2018-Jun-12 10:30N 36°02' W 005°25'2 0.7
2018-Jun-12 07:43N 36°04' W 005°23'419.4
2018-Jun-12 07:29N 35°60' W 005°25'6 0.6
2018-Jun-11 22:42N 35°56' W 005°31'315.6
2018-Jun-11 22:31N 35°59' W 005°28'714.4
2018-Jun-11 22:00N 36°05' W 005°24'4 7.6
2018-Jun-11 21:30N 36°08' W 005°26'0 0.0
2018-Jun-11 20:57N 36°08' W 005°26'0 0.0
2018-Jun-11 20:28N 36°08' W 005°26'3 5.4
2018-Jun-11 20:00N 36°07' W 005°24'918.0
2018-Jun-11 19:30N 35°58' W 005°26'3 1.2
2018-Jun-11 16:57N 35°57' W 005°30'613.5
2018-Jun-11 16:30N 36°02' W 005°25'7 3.9
2018-Jun-11 14:43N 36°09' W 005°25'517.2
2018-Jun-11 14:24N 36°03' W 005°23'9 0.6
2018-Jun-10 23:02N 35°56' W 005°30'015.7
2018-Jun-10 23:00N 35°57' W 005°30'714.3
2018-Jun-10 22:31N 36°02' W 005°24'714.3
2018-Jun-10 22:01N 36°09' W 005°26'1 2.0
2018-Jun-10 21:28N 36°08' W 005°26'0 0.0
2018-Jun-10 20:58N 36°08' W 005°26'1 1.2
2018-Jun-10 20:30N 36°08' W 005°26'510.9
2018-Jun-10 20:00N 36°03' W 005°23'9 3.2
2018-Jun-10 17:15N 35°56' W 005°30'313.4
2018-Jun-10 17:00N 35°59' W 005°28'612.8
2018-Jun-10 16:30N 36°05' W 005°24'4 2.6
2018-Jun-10 14:59N 36°08' W 005°26'4 7.4
2018-Jun-10 14:26N 36°05' W 005°23'10 3.1
2018-Jun-10 11:14N 35°56' W 005°30'315.4
2018-Jun-10 11:01N 35°59' W 005°28'714.4
2018-Jun-10 10:31N 36°06' W 005°24'3 1.8
2018-Jun-10 08:57N 36°08' W 005°26'2 4.5
2018-Jun-10 08:29N 36°07' W 005°24'816.5
2018-Jun-10 08:00N 35°59' W 005°25'8 2.6
2018-Jun-10 05:00N 35°53' W 005°31'714.6
2018-Jun-10 04:30N 35°60' W 005°27'714.9
2018-Jun-10 04:00N 36°07' W 005°24'2 4.4
2018-Jun-10 03:30N 36°08' W 005°26'0 0.0
2018-Jun-10 02:59N 36°08' W 005°26'3 6.2
2018-Jun-10 02:30N 36°06' W 005°24'918.0
2018-Jun-10 02:00N 35°57' W 005°27'2 0.8
2018-Jun-09 23:09N 35°56' W 005°29'215.1
2018-Jun-09 23:00N 35°58' W 005°28'714.2
2018-Jun-09 22:30N 36°04' W 005°24'4 9.0
2018-Jun-09 22:01N 36°08' W 005°26'0 0.3
2018-Jun-09 21:25N 36°08' W 005°26'0 0.1
2018-Jun-09 20:52N 36°08' W 005°26'2 4.7
2018-Jun-09 20:29N 36°08' W 005°24'714.5
2018-Jun-09 20:00N 36°02' W 005°24'10 3.4
2018-Jun-09 17:00N 35°53' W 005°31'714.2
2018-Jun-09 16:31N 35°60' W 005°27'714.7
2018-Jun-09 16:01N 36°06' W 005°24'2 2.5
2018-Jun-09 15:02N 36°08' W 005°26'0 0.0
2018-Jun-09 14:30N 36°08' W 005°26'3 5.5
2018-Jun-09 14:00N 36°06' W 005°24'917.3
2018-Jun-09 13:30N 35°58' W 005°27'3 1.2
2018-Jun-09 10:57N 35°56' W 005°30'614.9
2018-Jun-09 10:30N 36°01' W 005°24'813.4
2018-Jun-09 09:54N 36°09' W 005°26'1 0.9
2018-Jun-09 08:35N 36°08' W 005°26'0 1.3
2018-Jun-09 08:30N 36°08' W 005°26'5 8.5
2018-Jun-09 07:55N 36°04' W 005°23'717.8
2018-Jun-09 07:30N 35°57' W 005°28'2 0.6
2018-Jun-09 04:46N 35°56' W 005°30'415.2
2018-Jun-09 04:30N 35°60' W 005°27'7 3.5
2018-Jun-09 02:27N 36°06' W 005°23'817.9
2018-Jun-09 02:00N 35°58' W 005°26'  
Track history (hours):
 
Tides and Currents Weather Stations Pressure Air Temp Water Temp Dewpoint Dewpoint Depression Visibility Wind Speed Wind Dir Waves Ship Positions

Morocco Star

Last reported at 2018-Jun-18 23:43 UTC. Time now 2018-Jun-21 04:37 UTC.
Position N 35°56' W 005°30'.

Length 152 m; draft 5.1 m.

Type: Ship. MMSI: 242579300.

Date/timePositionNaut miles runAvg speedWind from/ knotsBaromVisibWave heightAir tempDewpointWater temp
2018-Jun-18 23:43N 35°56' W 005°30'312.7
2018-Jun-18 23:30N 35°59' W 005°28'611.5
2018-Jun-18 23:00N 36°03' W 005°24'5 8.2
2018-Jun-18 22:24N 36°08' W 005°26'0 0.1
2018-Jun-18 21:27N 36°08' W 005°26'4 6.8
2018-Jun-18 20:54N 36°05' W 005°23'616.2
2018-Jun-18 20:31N 35°59' W 005°25'5 2.2
2018-Jun-18 18:21N 35°56' W 005°30'613.6
2018-Jun-18 17:55N 36°01' W 005°25'2 0.6
2018-Jun-18 15:03N 36°03' W 005°24'115.3
2018-Jun-18 14:58N 36°01' W 005°24'7 1.7
2018-Jun-18 11:02N 35°57' W 005°30'113.2
2018-Jun-18 10:59N 35°58' W 005°30'713.9
2018-Jun-18 10:29N 36°03' W 005°24'2 0.7
2018-Jun-18 08:00N 36°05' W 005°24'815.8
2018-Jun-18 07:30N 35°57' W 005°27'5 0.6
2018-Jun-17 23:19N 35°54' W 005°31'413.6
2018-Jun-17 23:00N 35°57' W 005°29'612.0
2018-Jun-17 22:30N 36°02' W 005°25'6 4.3
2018-Jun-17 21:07N 36°08' W 005°26'0 0.0
2018-Jun-17 20:49N 36°08' W 005°26'0 1.1
2018-Jun-17 20:30N 36°08' W 005°26'4 8.6
2018-Jun-17 20:00N 36°05' W 005°24'815.8
2018-Jun-17 19:30N 35°57' W 005°28'2 1.0
2018-Jun-17 17:02N 35°56' W 005°30'114.4
2018-Jun-17 16:58N 35°57' W 005°30'611.9
2018-Jun-17 16:30N 36°01' W 005°25'7 4.6
2018-Jun-17 15:05N 36°08' W 005°26'0 0.0
2018-Jun-17 14:59N 36°08' W 005°26'0 1.0
2018-Jun-17 14:30N 36°08' W 005°26'5 9.3
2018-Jun-17 14:01N 36°04' W 005°24'714.6
2018-Jun-17 13:31N 35°58' W 005°28'2 0.8
2018-Jun-17 11:02N 35°57' W 005°30'014.1
2018-Jun-17 11:00N 35°57' W 005°30'713.3
2018-Jun-17 10:30N 36°02' W 005°25'6 3.6
2018-Jun-17 08:50N 36°08' W 005°26'0 0.2
2018-Jun-17 08:27N 36°08' W 005°26'2 5.3
2018-Jun-17 08:00N 36°07' W 005°24'714.7
2018-Jun-17 07:31N 35°60' W 005°23'915.9
2018-Jun-17 06:58N 35°54' W 005°31'0 0.0
2018-Jun-17 01:28N 35°54' W 005°31'614.4
2018-Jun-17 01:00N 35°59' W 005°27'713.1
2018-Jun-17 00:30N 36°05' W 005°24'3 6.4
2018-Jun-17 00:01N 36°08' W 005°26'0 0.0
2018-Jun-16 23:30N 36°08' W 005°26'0 0.3
2018-Jun-16 23:00N 36°08' W 005°26'4 8.7
2018-Jun-16 22:30N 36°05' W 005°22'816.7
2018-Jun-16 22:00N 35°57' W 005°27'3 0.8
2018-Jun-16 18:44N 35°56' W 005°30'312.7
2018-Jun-16 18:30N 35°59' W 005°28'612.6
2018-Jun-16 18:00N 36°04' W 005°23'5 3.1
2018-Jun-16 16:28N 36°08' W 005°26'2 3.5
2018-Jun-16 16:00N 36°08' W 005°24'714.6
2018-Jun-16 15:30N 36°01' W 005°24'815.3
2018-Jun-16 14:58N 35°55' W 005°30'2 0.8
2018-Jun-16 12:13N 35°57' W 005°30'314.5
2018-Jun-16 12:00N 35°59' W 005°28'7 1.9
2018-Jun-16 08:33N 36°05' W 005°23'115.6
2018-Jun-16 08:30N 36°04' W 005°23'815.7
2018-Jun-16 08:00N 35°57' W 005°28'5 0.7
2018-Jun-16 00:49N 35°53' W 005°31'3 9.2
2018-Jun-16 00:28N 35°56' W 005°30'614.0
2018-Jun-16 00:00N 36°01' W 005°25'714.7
2018-Jun-15 23:30N 36°08' W 005°24'2 3.7
2018-Jun-15 22:59N 36°08' W 005°26'0 0.0
2018-Jun-15 22:17N 36°08' W 005°26'0 0.0
2018-Jun-15 22:00N 36°08' W 005°26'1 2.9
2018-Jun-15 21:30N 36°09' W 005°25'1 2.3
2018-Jun-15 20:59N 36°08' W 005°24'1 2.1
2018-Jun-15 20:30N 36°07' W 005°23'4 8.1
2018-Jun-15 20:00N 36°03' W 005°23'817.3
2018-Jun-15 19:30N 35°56' W 005°29'3 1.9
2018-Jun-15 17:41N 35°53' W 005°31'4 8.5
2018-Jun-15 17:10N 35°57' W 005°29'213.2
2018-Jun-15 17:00N 35°59' W 005°28'9 4.8
2018-Jun-15 15:07N 36°08' W 005°26'3 6.8
2018-Jun-15 14:41N 36°06' W 005°24'616.3
2018-Jun-15 14:19N 35°60' W 005°25'515.6
2018-Jun-15 14:00N 35°56' W 005°29'2 0.5
2018-Jun-15 11:03N 35°57' W 005°31'115.0
2018-Jun-15 11:00N 35°57' W 005°30'714.3
2018-Jun-15 10:30N 36°03' W 005°25'2 0.6
2018-Jun-15 07:33N 36°04' W 005°23'116.6
2018-Jun-15 07:30N 36°03' W 005°23'9 1.1
2018-Jun-14 22:52N 35°56' W 005°31'513.2
2018-Jun-14 22:30N 35°60' W 005°27'8 6.0
2018-Jun-14 21:11N 36°08' W 005°26'0 0.0
2018-Jun-14 20:59N 36°08' W 005°26'0 0.6
2018-Jun-14 20:30N 36°08' W 005°26'5 9.4
2018-Jun-14 20:00N 36°04' W 005°23'917.4
2018-Jun-14 19:30N 35°57' W 005°29'1 0.5
2018-Jun-14 17:15N 35°57' W 005°30'311.8
2018-Jun-14 17:00N 35°59' W 005°28'611.5
2018-Jun-14 16:30N 36°04' W 005°24'5 8.0
2018-Jun-14 15:56N 36°08' W 005°26'0 0.3
2018-Jun-14 15:24N 36°08' W 005°26'0 0.0
2018-Jun-14 15:00N 36°08' W 005°26'1 2.9
2018-Jun-14 14:30N 36°09' W 005°25'1015.5
2018-Jun-14 13:52N 35°59' W 005°26'4 1.7
2018-Jun-14 11:13N 35°56' W 005°30'314.0
2018-Jun-14 11:00N 35°59' W 005°28'713.1
2018-Jun-14 10:29N 36°05' W 005°24'4 2.2
2018-Jun-14 08:28N 36°09' W 005°25'715.3
2018-Jun-14 08:00N 36°02' W 005°24'8 0.9
2018-Jun-13 23:13N 35°57' W 005°31'313.1
2018-Jun-13 23:00N 35°59' W 005°28'612.4
2018-Jun-13 22:31N 36°04' W 005°24'510.4
2018-Jun-13 22:00N 36°09' W 005°26'1 1.6
2018-Jun-13 21:28N 36°08' W 005°26'0 0.1
2018-Jun-13 20:56N 36°08' W 005°26'3 5.5
2018-Jun-13 20:28N 36°07' W 005°23'918.7
2018-Jun-13 20:00N 35°58' W 005°26'2 1.2
2018-Jun-13 18:03N 35°58' W 005°29'113.6
2018-Jun-13 18:00N 35°58' W 005°29'612.7
2018-Jun-13 17:30N 36°04' W 005°24'6 3.1
2018-Jun-13 15:44N 36°09' W 005°26'613.2
2018-Jun-13 15:16N 36°03' W 005°23'518.8
2018-Jun-13 15:01N 35°59' W 005°26'3 0.9
2018-Jun-13 11:12N 35°57' W 005°30'315.0
2018-Jun-13 11:00N 35°60' W 005°27'713.7
2018-Jun-13 10:30N 36°06' W 005°23'3 1.5
2018-Jun-13 08:21N 36°09' W 005°25'616.6
2018-Jun-13 07:58N 36°03' W 005°24'12 1.4
2018-Jun-12 23:55N 35°53' W 005°31'4 9.6
2018-Jun-12 23:30N 35°57' W 005°30'714.7
2018-Jun-12 23:00N 36°03' W 005°25'6 3.1
2018-Jun-12 21:14N 36°08' W 005°26'1 6.0
2018-Jun-12 21:00N 36°09' W 005°25'816.6
2018-Jun-12 20:31N 36°00' W 005°25'5 1.8
2018-Jun-12 17:53N 35°57' W 005°29'512.7
2018-Jun-12 17:29N 36°01' W 005°25'7 3.2
2018-Jun-12 15:23N 36°08' W 005°26'4 6.1
2018-Jun-12 14:41N 36°04' W 005°23'618.4
2018-Jun-12 14:22N 35°59' W 005°26'4 1.0
2018-Jun-12 10:56N 35°57' W 005°30'614.8
2018-Jun-12 10:30N 36°02' W 005°25'2 0.7
2018-Jun-12 07:43N 36°04' W 005°23'419.4
2018-Jun-12 07:29N 35°60' W 005°25'6 0.6
2018-Jun-11 22:42N 35°56' W 005°31'315.6
2018-Jun-11 22:31N 35°59' W 005°28'714.4
2018-Jun-11 22:00N 36°05' W 005°24'4 7.6
2018-Jun-11 21:30N 36°08' W 005°26'0 0.0
2018-Jun-11 20:57N 36°08' W 005°26'0 0.0
2018-Jun-11 20:28N 36°08' W 005°26'3 5.4
2018-Jun-11 20:00N 36°07' W 005°24'918.0
2018-Jun-11 19:30N 35°58' W 005°26'3 1.2
2018-Jun-11 16:57N 35°57' W 005°30'613.5
2018-Jun-11 16:30N 36°02' W 005°25'7 3.9
2018-Jun-11 14:43N 36°09' W 005°25'517.2
2018-Jun-11 14:24N 36°03' W 005°23'9 0.6
2018-Jun-10 23:02N 35°56' W 005°30'015.7
2018-Jun-10 23:00N 35°57' W 005°30'714.3
2018-Jun-10 22:31N 36°02' W 005°24'714.3
2018-Jun-10 22:01N 36°09' W 005°26'1 2.0
2018-Jun-10 21:28N 36°08' W 005°26'0 0.0
2018-Jun-10 20:58N 36°08' W 005°26'1 1.2
2018-Jun-10 20:30N 36°08' W 005°26'510.9
2018-Jun-10 20:00N 36°03' W 005°23'9 3.2
2018-Jun-10 17:15N 35°56' W 005°30'313.4
2018-Jun-10 17:00N 35°59' W 005°28'612.8
2018-Jun-10 16:30N 36°05' W 005°24'4 2.6
2018-Jun-10 14:59N 36°08' W 005°26'4 7.4
2018-Jun-10 14:26N 36°05' W 005°23'10 3.1
2018-Jun-10 11:14N 35°56' W 005°30'315.4
2018-Jun-10 11:01N 35°59' W 005°28'714.4
2018-Jun-10 10:31N 36°06' W 005°24'3 1.8
2018-Jun-10 08:57N 36°08' W 005°26'2 4.5
2018-Jun-10 08:29N 36°07' W 005°24'816.5
2018-Jun-10 08:00N 35°59' W 005°25'8 2.6
2018-Jun-10 05:00N 35°53' W 005°31'714.6
2018-Jun-10 04:30N 35°60' W 005°27'714.9
2018-Jun-10 04:00N 36°07' W 005°24'2 4.4
2018-Jun-10 03:30N 36°08' W 005°26'0 0.0
2018-Jun-10 02:59N 36°08' W 005°26'3 6.2
2018-Jun-10 02:30N 36°06' W 005°24'918.0
2018-Jun-10 02:00N 35°57' W 005°27'2 0.8
2018-Jun-09 23:09N 35°56' W 005°29'215.1
2018-Jun-09 23:00N 35°58' W 005°28'714.2
2018-Jun-09 22:30N 36°04' W 005°24'4 9.0
2018-Jun-09 22:01N 36°08' W 005°26'0 0.3
2018-Jun-09 21:25N 36°08' W 005°26'0 0.1
2018-Jun-09 20:52N 36°08' W 005°26'2 4.7
2018-Jun-09 20:29N 36°08' W 005°24'714.5
2018-Jun-09 20:00N 36°02' W 005°24'10 3.4
2018-Jun-09 17:00N 35°53' W 005°31'714.2
2018-Jun-09 16:31N 35°60' W 005°27'714.7
2018-Jun-09 16:01N 36°06' W 005°24'2 2.5
2018-Jun-09 15:02N 36°08' W 005°26'0 0.0
2018-Jun-09 14:30N 36°08' W 005°26'3 5.5
2018-Jun-09 14:00N 36°06' W 005°24'917.3
2018-Jun-09 13:30N 35°58' W 005°27'3 1.2
2018-Jun-09 10:57N 35°56' W 005°30'614.9
2018-Jun-09 10:30N 36°01' W 005°24'813.4
2018-Jun-09 09:54N 36°09' W 005°26'1 0.9
2018-Jun-09 08:35N 36°08' W 005°26'0 1.3
2018-Jun-09 08:30N 36°08' W 005°26'5 8.5
2018-Jun-09 07:55N 36°04' W 005°23'717.8
2018-Jun-09 07:30N 35°57' W 005°28'2 0.6
2018-Jun-09 04:46N 35°56' W 005°30'415.2
2018-Jun-09 04:30N 35°60' W 005°27'7 3.5
2018-Jun-09 02:27N 36°06' W 005°23'817.9
2018-Jun-09 02:00N 35°58' W 005°26'  

Dump ship's entire track history